sensor_id;sensor_type;location;lat;lon;timestamp;P1;durP1;ratioP1;P2;durP2;ratioP2
43996;SDS011;34318;45.818;15.964;2023-04-24T00:00:31;28.83;;;26.33;;
43996;SDS011;34318;45.818;15.964;2023-04-24T00:02:58;28.75;;;26.15;;
43996;SDS011;34318;45.818;15.964;2023-04-24T00:05:26;29.40;;;26.80;;
43996;SDS011;34318;45.818;15.964;2023-04-24T00:07:53;28.02;;;25.55;;
43996;SDS011;34318;45.818;15.964;2023-04-24T00:10:21;28.23;;;25.73;;
43996;SDS011;34318;45.818;15.964;2023-04-24T00:12:48;27.92;;;25.35;;
43996;SDS011;34318;45.818;15.964;2023-04-24T00:15:15;27.08;;;24.58;;
43996;SDS011;34318;45.818;15.964;2023-04-24T00:17:43;27.33;;;24.67;;
43996;SDS011;34318;45.818;15.964;2023-04-24T00:20:10;24.60;;;22.40;;
43996;SDS011;34318;45.818;15.964;2023-04-24T00:22:37;25.15;;;23.02;;
43996;SDS011;34318;45.818;15.964;2023-04-24T00:25:05;27.05;;;24.65;;
43996;SDS011;34318;45.818;15.964;2023-04-24T00:27:32;23.50;;;21.45;;
43996;SDS011;34318;45.818;15.964;2023-04-24T00:30:01;25.63;;;23.35;;
43996;SDS011;34318;45.818;15.964;2023-04-24T00:32:28;24.85;;;22.75;;
43996;SDS011;34318;45.818;15.964;2023-04-24T00:34:55;24.38;;;22.08;;
43996;SDS011;34318;45.818;15.964;2023-04-24T00:37:25;24.98;;;22.83;;
43996;SDS011;34318;45.818;15.964;2023-04-24T00:39:52;24.65;;;22.35;;
43996;SDS011;34318;45.818;15.964;2023-04-24T00:42:20;24.48;;;22.20;;
43996;SDS011;34318;45.818;15.964;2023-04-24T00:44:47;24.80;;;22.60;;
43996;SDS011;34318;45.818;15.964;2023-04-24T00:47:14;22.67;;;20.77;;
43996;SDS011;34318;45.818;15.964;2023-04-24T00:49:42;23.88;;;21.73;;
43996;SDS011;34318;45.818;15.964;2023-04-24T00:52:10;22.42;;;20.55;;
43996;SDS011;34318;45.818;15.964;2023-04-24T00:54:38;22.80;;;20.70;;
43996;SDS011;34318;45.818;15.964;2023-04-24T00:57:05;22.25;;;20.15;;
43996;SDS011;34318;45.818;15.964;2023-04-24T00:59:33;23.23;;;21.02;;
43996;SDS011;34318;45.818;15.964;2023-04-24T01:02:00;23.50;;;21.50;;
43996;SDS011;34318;45.818;15.964;2023-04-24T01:04:27;24.23;;;22.17;;
43996;SDS011;34318;45.818;15.964;2023-04-24T01:06:55;22.15;;;20.13;;
43996;SDS011;34318;45.818;15.964;2023-04-24T01:09:23;22.95;;;20.95;;
43996;SDS011;34318;45.818;15.964;2023-04-24T01:11:50;23.80;;;21.67;;
43996;SDS011;34318;45.818;15.964;2023-04-24T01:14:17;22.85;;;20.95;;
43996;SDS011;34318;45.818;15.964;2023-04-24T01:16:44;23.30;;;21.02;;
43996;SDS011;34318;45.818;15.964;2023-04-24T01:19:12;23.38;;;21.05;;
43996;SDS011;34318;45.818;15.964;2023-04-24T01:21:40;25.00;;;22.80;;
43996;SDS011;34318;45.818;15.964;2023-04-24T01:24:08;21.88;;;19.92;;
43996;SDS011;34318;45.818;15.964;2023-04-24T01:26:35;21.85;;;19.88;;
43996;SDS011;34318;45.818;15.964;2023-04-24T01:29:02;21.45;;;19.60;;
43996;SDS011;34318;45.818;15.964;2023-04-24T01:31:29;21.70;;;19.80;;
43996;SDS011;34318;45.818;15.964;2023-04-24T01:33:57;21.58;;;19.67;;
43996;SDS011;34318;45.818;15.964;2023-04-24T01:36:25;23.02;;;21.05;;
43996;SDS011;34318;45.818;15.964;2023-04-24T01:38:54;21.65;;;19.75;;
43996;SDS011;34318;45.818;15.964;2023-04-24T01:41:21;22.88;;;20.65;;
43996;SDS011;34318;45.818;15.964;2023-04-24T01:43:48;21.42;;;19.63;;
43996;SDS011;34318;45.818;15.964;2023-04-24T01:46:16;20.73;;;18.92;;
43996;SDS011;34318;45.818;15.964;2023-04-24T01:48:44;21.70;;;19.80;;
43996;SDS011;34318;45.818;15.964;2023-04-24T01:51:12;22.08;;;19.83;;
43996;SDS011;34318;45.818;15.964;2023-04-24T01:53:39;21.38;;;19.58;;
43996;SDS011;34318;45.818;15.964;2023-04-24T01:56:07;20.38;;;18.48;;
43996;SDS011;34318;45.818;15.964;2023-04-24T01:58:34;20.65;;;18.70;;
43996;SDS011;34318;45.818;15.964;2023-04-24T02:01:01;20.40;;;18.60;;
43996;SDS011;34318;45.818;15.964;2023-04-24T02:03:28;20.20;;;18.60;;
43996;SDS011;34318;45.818;15.964;2023-04-24T02:05:56;20.45;;;18.75;;
43996;SDS011;34318;45.818;15.964;2023-04-24T02:08:25;21.70;;;18.42;;
43996;SDS011;34318;45.818;15.964;2023-04-24T02:10:52;20.50;;;18.80;;
43996;SDS011;34318;45.818;15.964;2023-04-24T02:13:19;19.83;;;17.92;;
43996;SDS011;34318;45.818;15.964;2023-04-24T02:15:46;19.52;;;17.83;;
43996;SDS011;34318;45.818;15.964;2023-04-24T02:18:13;19.40;;;17.77;;
43996;SDS011;34318;45.818;15.964;2023-04-24T02:20:41;19.52;;;17.65;;
43996;SDS011;34318;45.818;15.964;2023-04-24T02:23:08;20.08;;;18.38;;
43996;SDS011;34318;45.818;15.964;2023-04-24T02:25:36;19.70;;;18.00;;
43996;SDS011;34318;45.818;15.964;2023-04-24T02:28:03;18.38;;;16.77;;
43996;SDS011;34318;45.818;15.964;2023-04-24T02:30:30;19.70;;;17.80;;
43996;SDS011;34318;45.818;15.964;2023-04-24T02:32:57;17.90;;;16.40;;
43996;SDS011;34318;45.818;15.964;2023-04-24T02:35:24;18.52;;;17.02;;
43996;SDS011;34318;45.818;15.964;2023-04-24T02:37:52;17.90;;;16.40;;
43996;SDS011;34318;45.818;15.964;2023-04-24T02:40:19;18.55;;;16.77;;
43996;SDS011;34318;45.818;15.964;2023-04-24T02:42:46;18.35;;;16.65;;
43996;SDS011;34318;45.818;15.964;2023-04-24T02:45:13;18.20;;;16.60;;
43996;SDS011;34318;45.818;15.964;2023-04-24T02:47:40;17.80;;;16.30;;
43996;SDS011;34318;45.818;15.964;2023-04-24T02:50:08;18.73;;;17.05;;
43996;SDS011;34318;45.818;15.964;2023-04-24T02:52:35;17.33;;;15.80;;
43996;SDS011;34318;45.818;15.964;2023-04-24T02:55:02;16.13;;;14.80;;
43996;SDS011;34318;45.818;15.964;2023-04-24T02:57:30;17.17;;;15.77;;
43996;SDS011;34318;45.818;15.964;2023-04-24T02:59:57;16.63;;;15.07;;
43996;SDS011;34318;45.818;15.964;2023-04-24T03:02:24;16.48;;;15.07;;
43996;SDS011;34318;45.818;15.964;2023-04-24T03:04:52;16.75;;;15.25;;
43996;SDS011;34318;45.818;15.964;2023-04-24T03:07:19;17.20;;;15.70;;
43996;SDS011;34318;45.818;15.964;2023-04-24T03:09:47;16.85;;;15.38;;
43996;SDS011;34318;45.818;15.964;2023-04-24T03:12:14;16.90;;;15.35;;
43996;SDS011;34318;45.818;15.964;2023-04-24T03:14:43;15.27;;;13.90;;
43996;SDS011;34318;45.818;15.964;2023-04-24T03:17:10;16.23;;;14.82;;
43996;SDS011;34318;45.818;15.964;2023-04-24T03:19:37;16.90;;;15.30;;
43996;SDS011;34318;45.818;15.964;2023-04-24T03:22:05;15.25;;;13.82;;
43996;SDS011;34318;45.818;15.964;2023-04-24T03:24:32;14.95;;;13.75;;
43996;SDS011;34318;45.818;15.964;2023-04-24T03:26:59;14.13;;;13.02;;
43996;SDS011;34318;45.818;15.964;2023-04-24T03:29:27;15.32;;;14.02;;
43996;SDS011;34318;45.818;15.964;2023-04-24T03:31:55;14.25;;;13.05;;
43996;SDS011;34318;45.818;15.964;2023-04-24T03:34:22;14.65;;;13.35;;
43996;SDS011;34318;45.818;15.964;2023-04-24T03:36:50;17.38;;;13.68;;
43996;SDS011;34318;45.818;15.964;2023-04-24T03:39:18;15.30;;;14.00;;
43996;SDS011;34318;45.818;15.964;2023-04-24T03:41:45;13.57;;;12.48;;
43996;SDS011;34318;45.818;15.964;2023-04-24T03:44:13;14.13;;;12.93;;
43996;SDS011;34318;45.818;15.964;2023-04-24T03:46:40;13.68;;;12.57;;
43996;SDS011;34318;45.818;15.964;2023-04-24T03:49:07;14.20;;;12.93;;
43996;SDS011;34318;45.818;15.964;2023-04-24T03:51:34;15.18;;;13.88;;
43996;SDS011;34318;45.818;15.964;2023-04-24T03:54:02;14.18;;;12.88;;
43996;SDS011;34318;45.818;15.964;2023-04-24T03:56:30;14.75;;;13.45;;
43996;SDS011;34318;45.818;15.964;2023-04-24T03:58:57;14.70;;;13.40;;
43996;SDS011;34318;45.818;15.964;2023-04-24T04:01:24;14.40;;;13.20;;
43996;SDS011;34318;45.818;15.964;2023-04-24T04:03:51;13.85;;;12.65;;
43996;SDS011;34318;45.818;15.964;2023-04-24T04:06:19;15.13;;;13.82;;
43996;SDS011;34318;45.818;15.964;2023-04-24T04:08:47;17.40;;;15.82;;
43996;SDS011;34318;45.818;15.964;2023-04-24T04:11:14;15.82;;;14.55;;
43996;SDS011;34318;45.818;15.964;2023-04-24T04:13:42;16.08;;;14.55;;
43996;SDS011;34318;45.818;15.964;2023-04-24T04:16:09;17.13;;;15.55;;
43996;SDS011;34318;45.818;15.964;2023-04-24T04:18:36;15.60;;;14.10;;
43996;SDS011;34318;45.818;15.964;2023-04-24T04:21:03;16.58;;;15.20;;
43996;SDS011;34318;45.818;15.964;2023-04-24T04:23:31;15.23;;;13.82;;
43996;SDS011;34318;45.818;15.964;2023-04-24T04:25:58;15.75;;;14.38;;
43996;SDS011;34318;45.818;15.964;2023-04-24T04:28:25;15.30;;;14.05;;
43996;SDS011;34318;45.818;15.964;2023-04-24T04:30:53;16.55;;;14.88;;
43996;SDS011;34318;45.818;15.964;2023-04-24T04:33:21;14.07;;;12.98;;
43996;SDS011;34318;45.818;15.964;2023-04-24T04:35:48;14.18;;;12.98;;
43996;SDS011;34318;45.818;15.964;2023-04-24T04:38:15;15.18;;;13.60;;
43996;SDS011;34318;45.818;15.964;2023-04-24T04:40:43;14.18;;;12.88;;
43996;SDS011;34318;45.818;15.964;2023-04-24T04:43:10;15.30;;;14.00;;
43996;SDS011;34318;45.818;15.964;2023-04-24T04:45:39;15.02;;;13.65;;
43996;SDS011;34318;45.818;15.964;2023-04-24T04:48:07;14.63;;;13.52;;
43996;SDS011;34318;45.818;15.964;2023-04-24T04:50:35;13.80;;;12.50;;
43996;SDS011;34318;45.818;15.964;2023-04-24T04:53:02;14.00;;;12.82;;
43996;SDS011;34318;45.818;15.964;2023-04-24T04:55:29;14.90;;;13.60;;
43996;SDS011;34318;45.818;15.964;2023-04-24T04:57:56;14.48;;;13.13;;
43996;SDS011;34318;45.818;15.964;2023-04-24T05:00:24;15.05;;;13.30;;
43996;SDS011;34318;45.818;15.964;2023-04-24T05:02:51;17.45;;;13.35;;
43996;SDS011;34318;45.818;15.964;2023-04-24T05:05:19;15.00;;;13.70;;
43996;SDS011;34318;45.818;15.964;2023-04-24T05:07:46;14.60;;;13.38;;
43996;SDS011;34318;45.818;15.964;2023-04-24T05:10:13;15.57;;;14.10;;
43996;SDS011;34318;45.818;15.964;2023-04-24T05:12:40;13.27;;;12.02;;
43996;SDS011;34318;45.818;15.964;2023-04-24T05:15:11;13.35;;;12.25;;
43996;SDS011;34318;45.818;15.964;2023-04-24T05:17:38;13.23;;;11.95;;
43996;SDS011;34318;45.818;15.964;2023-04-24T05:20:06;14.88;;;12.80;;
43996;SDS011;34318;45.818;15.964;2023-04-24T05:22:34;17.23;;;12.20;;
43996;SDS011;34318;45.818;15.964;2023-04-24T05:25:02;12.77;;;11.18;;
43996;SDS011;34318;45.818;15.964;2023-04-24T05:27:29;12.85;;;11.70;;
43996;SDS011;34318;45.818;15.964;2023-04-24T05:29:56;20.92;;;19.00;;
43996;SDS011;34318;45.818;15.964;2023-04-24T05:32:23;29.35;;;26.45;;
43996;SDS011;34318;45.818;15.964;2023-04-24T05:34:51;35.50;;;32.15;;
43996;SDS011;34318;45.818;15.964;2023-04-24T05:37:18;36.50;;;32.63;;
43996;SDS011;34318;45.818;15.964;2023-04-24T05:39:46;37.15;;;33.85;;
43996;SDS011;34318;45.818;15.964;2023-04-24T05:42:13;36.33;;;32.13;;
43996;SDS011;34318;45.818;15.964;2023-04-24T05:44:40;34.30;;;31.30;;
43996;SDS011;34318;45.818;15.964;2023-04-24T05:47:08;33.83;;;30.83;;
43996;SDS011;34318;45.818;15.964;2023-04-24T05:49:35;34.47;;;31.15;;
43996;SDS011;34318;45.818;15.964;2023-04-24T05:52:02;34.67;;;31.42;;
43996;SDS011;34318;45.818;15.964;2023-04-24T05:54:31;33.70;;;30.58;;
43996;SDS011;34318;45.818;15.964;2023-04-24T05:56:58;32.65;;;29.85;;
43996;SDS011;34318;45.818;15.964;2023-04-24T05:59:27;34.40;;;31.30;;
43996;SDS011;34318;45.818;15.964;2023-04-24T06:01:54;33.88;;;30.60;;
43996;SDS011;34318;45.818;15.964;2023-04-24T06:04:22;34.85;;;30.50;;
43996;SDS011;34318;45.818;15.964;2023-04-24T06:06:51;33.40;;;30.25;;
43996;SDS011;34318;45.818;15.964;2023-04-24T06:09:22;32.63;;;29.30;;
43996;SDS011;34318;45.818;15.964;2023-04-24T06:11:49;30.35;;;27.65;;
43996;SDS011;34318;45.818;15.964;2023-04-24T06:14:20;31.55;;;28.75;;
43996;SDS011;34318;45.818;15.964;2023-04-24T06:16:47;31.98;;;28.98;;
43996;SDS011;34318;45.818;15.964;2023-04-24T06:19:15;31.40;;;28.38;;
43996;SDS011;34318;45.818;15.964;2023-04-24T06:21:42;33.92;;;30.98;;
43996;SDS011;34318;45.818;15.964;2023-04-24T06:24:10;32.75;;;29.85;;
43996;SDS011;34318;45.818;15.964;2023-04-24T06:26:38;33.03;;;30.05;;
43996;SDS011;34318;45.818;15.964;2023-04-24T06:29:06;33.22;;;30.27;;
43996;SDS011;34318;45.818;15.964;2023-04-24T06:31:33;35.58;;;31.98;;
43996;SDS011;34318;45.818;15.964;2023-04-24T06:34:03;32.25;;;29.30;;
43996;SDS011;34318;45.818;15.964;2023-04-24T06:36:31;29.98;;;27.38;;
43996;SDS011;34318;45.818;15.964;2023-04-24T06:39:00;33.30;;;30.23;;
43996;SDS011;34318;45.818;15.964;2023-04-24T06:41:28;30.02;;;27.40;;
43996;SDS011;34318;45.818;15.964;2023-04-24T06:43:55;31.35;;;28.30;;
43996;SDS011;34318;45.818;15.964;2023-04-24T06:46:22;31.50;;;28.58;;
43996;SDS011;34318;45.818;15.964;2023-04-24T06:48:52;31.17;;;28.20;;
43996;SDS011;34318;45.818;15.964;2023-04-24T06:51:24;32.00;;;29.38;;
43996;SDS011;34318;45.818;15.964;2023-04-24T06:53:53;29.73;;;26.88;;
43996;SDS011;34318;45.818;15.964;2023-04-24T06:56:20;28.85;;;26.20;;
43996;SDS011;34318;45.818;15.964;2023-04-24T06:58:47;29.77;;;26.92;;
43996;SDS011;34318;45.818;15.964;2023-04-24T07:01:14;27.52;;;24.88;;
43996;SDS011;34318;45.818;15.964;2023-04-24T07:03:42;25.65;;;23.30;;
43996;SDS011;34318;45.818;15.964;2023-04-24T07:06:09;24.95;;;22.52;;
43996;SDS011;34318;45.818;15.964;2023-04-24T07:08:40;44.72;;;40.78;;
43996;SDS011;34318;45.818;15.964;2023-04-24T07:11:08;163.02;;;107.18;;
43996;SDS011;34318;45.818;15.964;2023-04-24T07:13:35;130.00;;;75.97;;
43996;SDS011;34318;45.818;15.964;2023-04-24T07:16:02;114.10;;;70.47;;
43996;SDS011;34318;45.818;15.964;2023-04-24T07:18:29;92.57;;;63.28;;
43996;SDS011;34318;45.818;15.964;2023-04-24T07:20:57;83.60;;;56.30;;
43996;SDS011;34318;45.818;15.964;2023-04-24T07:23:24;87.15;;;57.40;;
43996;SDS011;34318;45.818;15.964;2023-04-24T07:25:51;76.40;;;52.45;;
43996;SDS011;34318;45.818;15.964;2023-04-24T07:28:18;66.20;;;48.25;;
43996;SDS011;34318;45.818;15.964;2023-04-24T07:30:46;66.07;;;46.90;;
43996;SDS011;34318;45.818;15.964;2023-04-24T07:33:13;63.30;;;44.67;;
43996;SDS011;34318;45.818;15.964;2023-04-24T07:35:40;55.03;;;40.47;;
43996;SDS011;34318;45.818;15.964;2023-04-24T07:38:08;53.40;;;38.33;;
43996;SDS011;34318;45.818;15.964;2023-04-24T07:40:35;54.00;;;37.38;;
43996;SDS011;34318;45.818;15.964;2023-04-24T07:43:02;44.20;;;35.70;;
43996;SDS011;34318;45.818;15.964;2023-04-24T07:45:29;47.42;;;33.38;;
43996;SDS011;34318;45.818;15.964;2023-04-24T07:47:57;45.70;;;33.05;;
43996;SDS011;34318;45.818;15.964;2023-04-24T07:50:24;42.67;;;32.00;;
43996;SDS011;34318;45.818;15.964;2023-04-24T07:52:51;42.50;;;30.33;;
43996;SDS011;34318;45.818;15.964;2023-04-24T07:55:18;34.15;;;26.83;;
43996;SDS011;34318;45.818;15.964;2023-04-24T07:57:49;38.88;;;28.27;;
43996;SDS011;34318;45.818;15.964;2023-04-24T08:00:17;33.78;;;25.48;;
43996;SDS011;34318;45.818;15.964;2023-04-24T08:02:45;30.42;;;22.02;;
43996;SDS011;34318;45.818;15.964;2023-04-24T08:05:12;32.00;;;21.92;;
43996;SDS011;34318;45.818;15.964;2023-04-24T08:07:40;26.77;;;19.33;;
43996;SDS011;34318;45.818;15.964;2023-04-24T08:10:09;25.30;;;20.35;;
43996;SDS011;34318;45.818;15.964;2023-04-24T08:12:37;23.83;;;19.42;;
43996;SDS011;34318;45.818;15.964;2023-04-24T08:15:05;24.05;;;18.33;;
43996;SDS011;34318;45.818;15.964;2023-04-24T08:17:33;26.42;;;18.73;;
43996;SDS011;34318;45.818;15.964;2023-04-24T08:20:01;21.88;;;17.63;;
43996;SDS011;34318;45.818;15.964;2023-04-24T08:22:28;25.48;;;16.38;;
43996;SDS011;34318;45.818;15.964;2023-04-24T08:24:55;23.17;;;16.08;;
43996;SDS011;34318;45.818;15.964;2023-04-24T08:27:23;19.48;;;15.80;;
43996;SDS011;34318;45.818;15.964;2023-04-24T08:29:50;17.75;;;14.60;;
43996;SDS011;34318;45.818;15.964;2023-04-24T08:32:18;16.40;;;13.20;;
43996;SDS011;34318;45.818;15.964;2023-04-24T08:34:45;16.83;;;14.52;;
43996;SDS011;34318;45.818;15.964;2023-04-24T08:37:14;20.38;;;15.57;;
43996;SDS011;34318;45.818;15.964;2023-04-24T08:39:42;20.67;;;15.98;;
43996;SDS011;34318;45.818;15.964;2023-04-24T08:42:09;16.33;;;14.63;;
43996;SDS011;34318;45.818;15.964;2023-04-24T08:44:38;20.25;;;14.98;;
43996;SDS011;34318;45.818;15.964;2023-04-24T08:47:05;17.15;;;13.95;;
43996;SDS011;34318;45.818;15.964;2023-04-24T08:49:33;17.75;;;15.27;;
43996;SDS011;34318;45.818;15.964;2023-04-24T08:52:02;21.75;;;15.20;;
43996;SDS011;34318;45.818;15.964;2023-04-24T08:54:30;25.77;;;14.98;;
43996;SDS011;34318;45.818;15.964;2023-04-24T08:56:58;14.10;;;12.45;;
43996;SDS011;34318;45.818;15.964;2023-04-24T08:59:30;14.27;;;12.30;;
43996;SDS011;34318;45.818;15.964;2023-04-24T09:01:57;15.93;;;12.80;;
43996;SDS011;34318;45.818;15.964;2023-04-24T09:04:25;15.70;;;11.45;;
43996;SDS011;34318;45.818;15.964;2023-04-24T09:06:57;19.10;;;13.45;;
43996;SDS011;34318;45.818;15.964;2023-04-24T09:09:25;17.25;;;13.63;;
43996;SDS011;34318;45.818;15.964;2023-04-24T09:11:52;22.02;;;13.93;;
43996;SDS011;34318;45.818;15.964;2023-04-24T09:14:21;17.13;;;13.10;;
43996;SDS011;34318;45.818;15.964;2023-04-24T09:16:50;18.80;;;13.35;;
43996;SDS011;34318;45.818;15.964;2023-04-24T09:19:17;16.83;;;12.75;;
43996;SDS011;34318;45.818;15.964;2023-04-24T09:21:45;18.92;;;11.68;;
43996;SDS011;34318;45.818;15.964;2023-04-24T09:24:16;19.05;;;13.48;;
43996;SDS011;34318;45.818;15.964;2023-04-24T09:26:44;18.30;;;16.08;;
43996;SDS011;34318;45.818;15.964;2023-04-24T09:29:18;18.58;;;15.98;;
43996;SDS011;34318;45.818;15.964;2023-04-24T09:31:45;19.10;;;15.23;;
43996;SDS011;34318;45.818;15.964;2023-04-24T09:34:13;15.70;;;14.20;;
43996;SDS011;34318;45.818;15.964;2023-04-24T09:36:41;15.73;;;13.95;;
43996;SDS011;34318;45.818;15.964;2023-04-24T09:39:10;16.77;;;13.75;;
43996;SDS011;34318;45.818;15.964;2023-04-24T09:41:51;15.68;;;13.20;;
43996;SDS011;34318;45.818;15.964;2023-04-24T09:44:22;15.15;;;12.93;;
43996;SDS011;34318;45.818;15.964;2023-04-24T09:46:50;15.02;;;13.13;;
43996;SDS011;34318;45.818;15.964;2023-04-24T09:49:21;13.23;;;11.82;;
43996;SDS011;34318;45.818;15.964;2023-04-24T09:51:48;14.18;;;11.70;;
43996;SDS011;34318;45.818;15.964;2023-04-24T09:54:16;13.40;;;11.63;;
43996;SDS011;34318;45.818;15.964;2023-04-24T09:56:44;15.48;;;12.52;;
43996;SDS011;34318;45.818;15.964;2023-04-24T09:59:12;14.45;;;12.13;;
43996;SDS011;34318;45.818;15.964;2023-04-24T10:01:40;15.63;;;12.00;;
43996;SDS011;34318;45.818;15.964;2023-04-24T10:04:17;13.43;;;11.63;;
43996;SDS011;34318;45.818;15.964;2023-04-24T10:06:46;13.00;;;11.60;;
43996;SDS011;34318;45.818;15.964;2023-04-24T10:09:13;14.45;;;11.25;;
43996;SDS011;34318;45.818;15.964;2023-04-24T10:11:41;13.57;;;11.38;;
43996;SDS011;34318;45.818;15.964;2023-04-24T10:14:10;14.05;;;11.75;;
43996;SDS011;34318;45.818;15.964;2023-04-24T10:16:38;13.07;;;11.05;;
43996;SDS011;34318;45.818;15.964;2023-04-24T10:19:07;14.05;;;11.23;;
43996;SDS011;34318;45.818;15.964;2023-04-24T10:21:34;12.95;;;11.27;;
43996;SDS011;34318;45.818;15.964;2023-04-24T10:24:04;13.77;;;10.93;;
43996;SDS011;34318;45.818;15.964;2023-04-24T10:26:34;12.40;;;10.57;;
43996;SDS011;34318;45.818;15.964;2023-04-24T10:29:01;14.20;;;10.93;;
43996;SDS011;34318;45.818;15.964;2023-04-24T10:31:31;12.07;;;10.82;;
43996;SDS011;34318;45.818;15.964;2023-04-24T10:33:59;13.25;;;10.93;;
43996;SDS011;34318;45.818;15.964;2023-04-24T10:36:26;11.75;;;10.55;;
43996;SDS011;34318;45.818;15.964;2023-04-24T10:38:54;12.63;;;10.90;;
43996;SDS011;34318;45.818;15.964;2023-04-24T10:41:22;12.30;;;10.75;;
43996;SDS011;34318;45.818;15.964;2023-04-24T10:44:13;12.85;;;10.52;;
43996;SDS011;34318;45.818;15.964;2023-04-24T10:46:43;11.30;;;9.98;;
43996;SDS011;34318;45.818;15.964;2023-04-24T10:49:10;14.55;;;10.90;;
43996;SDS011;34318;45.818;15.964;2023-04-24T10:54:22;13.25;;;9.63;;
43996;SDS011;34318;45.818;15.964;2023-04-24T10:56:50;13.38;;;9.48;;
43996;SDS011;34318;45.818;15.964;2023-04-24T10:59:24;12.88;;;9.90;;
43996;SDS011;34318;45.818;15.964;2023-04-24T11:01:55;11.73;;;9.85;;
43996;SDS011;34318;45.818;15.964;2023-04-24T11:04:29;11.60;;;10.23;;
43996;SDS011;34318;45.818;15.964;2023-04-24T11:06:57;14.52;;;10.45;;
43996;SDS011;34318;45.818;15.964;2023-04-24T11:09:28;11.55;;;10.10;;
43996;SDS011;34318;45.818;15.964;2023-04-24T11:12:03;10.10;;;9.10;;
43996;SDS011;34318;45.818;15.964;2023-04-24T11:17:31;11.75;;;9.32;;
43996;SDS011;34318;45.818;15.964;2023-04-24T11:20:06;10.38;;;9.02;;
43996;SDS011;34318;45.818;15.964;2023-04-24T11:22:53;10.88;;;9.30;;
43996;SDS011;34318;45.818;15.964;2023-04-24T11:25:24;10.20;;;9.20;;
43996;SDS011;34318;45.818;15.964;2023-04-24T11:27:52;10.20;;;9.13;;
43996;SDS011;34318;45.818;15.964;2023-04-24T11:30:29;10.75;;;9.25;;
43996;SDS011;34318;45.818;15.964;2023-04-24T11:33:02;9.75;;;8.73;;
43996;SDS011;34318;45.818;15.964;2023-04-24T11:35:29;9.88;;;8.85;;
43996;SDS011;34318;45.818;15.964;2023-04-24T11:37:56;10.05;;;8.90;;
43996;SDS011;34318;45.818;15.964;2023-04-24T11:40:28;9.80;;;8.80;;
43996;SDS011;34318;45.818;15.964;2023-04-24T11:42:55;11.07;;;9.13;;
43996;SDS011;34318;45.818;15.964;2023-04-24T11:45:23;9.30;;;8.38;;
43996;SDS011;34318;45.818;15.964;2023-04-24T11:47:51;8.85;;;8.02;;
43996;SDS011;34318;45.818;15.964;2023-04-24T11:50:19;9.95;;;8.95;;
43996;SDS011;34318;45.818;15.964;2023-04-24T11:52:46;9.70;;;8.80;;
43996;SDS011;34318;45.818;15.964;2023-04-24T11:57:45;9.57;;;8.35;;
43996;SDS011;34318;45.818;15.964;2023-04-24T12:00:16;9.50;;;8.50;;
43996;SDS011;34318;45.818;15.964;2023-04-24T12:02:45;8.85;;;7.95;;
43996;SDS011;34318;45.818;15.964;2023-04-24T12:05:20;10.23;;;9.15;;
43996;SDS011;34318;45.818;15.964;2023-04-24T12:07:48;9.60;;;8.30;;
43996;SDS011;34318;45.818;15.964;2023-04-24T12:10:23;9.88;;;8.35;;
43996;SDS011;34318;45.818;15.964;2023-04-24T12:12:50;8.93;;;8.00;;
43996;SDS011;34318;45.818;15.964;2023-04-24T12:15:19;10.95;;;8.57;;
43996;SDS011;34318;45.818;15.964;2023-04-24T12:17:46;9.40;;;8.18;;
43996;SDS011;34318;45.818;15.964;2023-04-24T12:20:14;9.52;;;8.32;;
43996;SDS011;34318;45.818;15.964;2023-04-24T12:22:52;10.45;;;8.95;;
43996;SDS011;34318;45.818;15.964;2023-04-24T12:25:21;8.60;;;7.70;;
43996;SDS011;34318;45.818;15.964;2023-04-24T12:27:53;13.52;;;9.15;;
43996;SDS011;34318;45.818;15.964;2023-04-24T12:30:21;10.52;;;8.48;;
43996;SDS011;34318;45.818;15.964;2023-04-24T12:32:53;10.40;;;8.10;;
43996;SDS011;34318;45.818;15.964;2023-04-24T12:35:22;9.80;;;8.52;;
43996;SDS011;34318;45.818;15.964;2023-04-24T12:37:49;14.35;;;8.05;;
43996;SDS011;34318;45.818;15.964;2023-04-24T12:40:17;9.20;;;7.97;;
43996;SDS011;34318;45.818;15.964;2023-04-24T12:42:45;10.98;;;8.43;;
43996;SDS011;34318;45.818;15.964;2023-04-24T12:45:13;9.73;;;8.45;;
43996;SDS011;34318;45.818;15.964;2023-04-24T12:47:41;10.80;;;8.80;;
43996;SDS011;34318;45.818;15.964;2023-04-24T12:50:12;11.73;;;8.68;;
43996;SDS011;34318;45.818;15.964;2023-04-24T12:52:40;11.98;;;9.93;;
43996;SDS011;34318;45.818;15.964;2023-04-24T12:55:07;11.38;;;9.63;;
43996;SDS011;34318;45.818;15.964;2023-04-24T12:57:36;14.85;;;10.27;;
43996;SDS011;34318;45.818;15.964;2023-04-24T13:00:04;11.05;;;9.57;;
43996;SDS011;34318;45.818;15.964;2023-04-24T13:02:32;10.05;;;9.15;;
43996;SDS011;34318;45.818;15.964;2023-04-24T13:05:00;12.35;;;9.43;;
43996;SDS011;34318;45.818;15.964;2023-04-24T13:07:28;12.35;;;9.90;;
43996;SDS011;34318;45.818;15.964;2023-04-24T13:09:55;10.40;;;9.50;;
43996;SDS011;34318;45.818;15.964;2023-04-24T13:12:24;11.70;;;10.50;;
43996;SDS011;34318;45.818;15.964;2023-04-24T13:14:52;12.15;;;10.57;;
43996;SDS011;34318;45.818;15.964;2023-04-24T13:17:20;12.02;;;10.93;;
43996;SDS011;34318;45.818;15.964;2023-04-24T13:19:49;15.90;;;14.25;;
43996;SDS011;34318;45.818;15.964;2023-04-24T13:22:17;14.15;;;11.40;;
43996;SDS011;34318;45.818;15.964;2023-04-24T13:24:44;13.73;;;11.60;;
43996;SDS011;34318;45.818;15.964;2023-04-24T13:27:15;13.95;;;11.80;;
43996;SDS011;34318;45.818;15.964;2023-04-24T13:29:42;12.65;;;11.45;;
43996;SDS011;34318;45.818;15.964;2023-04-24T13:32:09;13.80;;;10.30;;
43996;SDS011;34318;45.818;15.964;2023-04-24T13:34:36;16.30;;;11.63;;
43996;SDS011;34318;45.818;15.964;2023-04-24T13:37:04;17.98;;;12.02;;
43996;SDS011;34318;45.818;15.964;2023-04-24T13:39:31;15.52;;;10.43;;
43996;SDS011;34318;45.818;15.964;2023-04-24T13:41:59;15.25;;;11.50;;
43996;SDS011;34318;45.818;15.964;2023-04-24T13:44:30;11.93;;;10.30;;
43996;SDS011;34318;45.818;15.964;2023-04-24T13:46:57;11.45;;;10.25;;
43996;SDS011;34318;45.818;15.964;2023-04-24T13:49:25;12.40;;;10.10;;
43996;SDS011;34318;45.818;15.964;2023-04-24T13:51:53;13.25;;;9.27;;
43996;SDS011;34318;45.818;15.964;2023-04-24T13:54:20;10.38;;;8.90;;
43996;SDS011;34318;45.818;15.964;2023-04-24T13:56:49;10.65;;;9.38;;
43996;SDS011;34318;45.818;15.964;2023-04-24T13:59:16;11.65;;;9.05;;
43996;SDS011;34318;45.818;15.964;2023-04-24T14:01:44;11.57;;;8.90;;
43996;SDS011;34318;45.818;15.964;2023-04-24T14:04:11;11.52;;;8.85;;
43996;SDS011;34318;45.818;15.964;2023-04-24T14:06:38;14.50;;;9.00;;
43996;SDS011;34318;45.818;15.964;2023-04-24T14:09:06;12.40;;;8.52;;
43996;SDS011;34318;45.818;15.964;2023-04-24T14:11:33;12.52;;;7.97;;
43996;SDS011;34318;45.818;15.964;2023-04-24T14:14:01;11.65;;;7.80;;
43996;SDS011;34318;45.818;15.964;2023-04-24T14:16:29;13.82;;;7.97;;
43996;SDS011;34318;45.818;15.964;2023-04-24T14:18:57;9.90;;;7.53;;
43996;SDS011;34318;45.818;15.964;2023-04-24T14:21:24;10.48;;;7.35;;
43996;SDS011;34318;45.818;15.964;2023-04-24T14:23:51;9.18;;;7.05;;